Time;durP1;ratioP1;P1;durP2;ratioP2;P2;SDS_P1;SDS_P2;PMS_P1;PMS_P2;Temp;Humidity;BMP_temperature;BMP_pressure;BME280_temperature;BME280_humidity;BME280_pressure;Samples;Min_cycle;Max_cycle;Signal;HPM_P1;HPM_P2
2021/12/17 00:05:07;;;;;;;20.23;11.07;;;4.00;99.90;;;;;;5094504;28;20175;-59
2021/12/17 00:07:42;;;;;;;22.20;11.10;;;4.00;99.90;;;;;;5094409;28;20192;-59
2021/12/17 00:10:12;;;;;;;19.90;10.82;;;4.00;99.90;;;;;;5093723;28;20259;-59
2021/12/17 00:12:38;;;;;;;18.08;10.75;;;4.00;99.90;;;;;;5093589;28;20187;-58
2021/12/17 00:15:05;;;;;;;19.30;10.63;;;4.00;99.90;;;;;;5093888;28;20211;-58
2021/12/17 00:17:35;;;;;;;21.45;10.80;;;4.10;99.90;;;;;;5093622;28;20230;-59
2021/12/17 00:52:27;;;;;;;21.52;10.13;;;4.40;99.90;;;;;;5093071;28;20180;-57
2021/12/17 00:54:53;;;;;;;22.00;11.00;;;4.40;99.90;;;;;;5093729;28;20271;-57
2021/12/17 00:57:24;;;;;;;20.80;11.25;;;4.40;99.90;;;;;;5092878;28;20709;-57
2021/12/17 00:59:51;;;;;;;19.50;10.38;;;4.40;99.90;;;;;;5093323;28;20172;-57
2021/12/17 01:02:22;;;;;;;23.13;10.35;;;4.50;99.90;;;;;;5092910;28;20194;-59
2021/12/17 01:04:56;;;;;;;24.70;10.65;;;4.50;99.90;;;;;;5093201;28;20176;-58
2021/12/17 01:07:26;;;;;;;20.23;11.20;;;4.50;99.90;;;;;;5092216;28;20185;-58
2021/12/17 01:09:52;;;;;;;18.52;10.32;;;4.60;99.90;;;;;;5092992;28;20543;-59
2021/12/17 01:12:20;;;;;;;20.13;11.35;;;4.60;99.90;;;;;;5092539;28;20176;-58
2021/12/17 01:14:46;;;;;;;18.45;11.13;;;4.60;99.90;;;;;;5093321;28;20204;-57
2021/12/17 01:17:13;;;;;;;20.98;11.15;;;4.70;99.90;;;;;;5090979;28;20655;-57
2021/12/17 01:25:14;;;;;;;54.95;25.10;;;4.80;99.90;;;;;;5092998;28;20563;-57
2021/12/17 01:35:52;;;;;;;32.40;14.32;;;4.80;99.90;;;;;;5089798;28;20354;-57
2021/12/17 01:41:14;;;;;;;29.55;13.90;;;4.80;99.90;;;;;;5092662;28;20180;-57
2021/12/17 01:43:45;;;;;;;27.95;13.38;;;4.80;99.90;;;;;;5092264;28;20180;-57
2021/12/17 01:46:20;;;;;;;34.88;15.38;;;4.80;99.90;;;;;;5092137;28;20200;-57
2021/12/17 01:49:16;;;;;;;28.63;13.98;;;4.80;99.90;;;;;;5084842;28;20168;-57
2021/12/17 02:00:06;;;;;;;28.60;14.10;;;4.90;99.90;;;;;;5091326;28;20650;-57
2021/12/17 02:02:40;;;;;;;29.50;14.23;;;4.90;99.90;;;;;;5079877;28;20198;-57
2021/12/17 02:05:06;;;;;;;30.10;14.50;;;4.90;99.90;;;;;;5091887;28;20187;-57
2021/12/17 02:07:31;;;;;;;29.45;14.50;;;4.90;99.90;;;;;;5091680;28;20233;-57
2021/12/17 02:31:38;;;;;;;18.52;10.20;;;5.10;99.90;;;;;;5091531;28;20263;-57
2021/12/17 02:34:19;;;;;;;20.80;11.52;;;5.10;99.90;;;;;;5091988;28;20258;-57
2021/12/17 02:36:46;;;;;;;51.13;19.45;;;5.10;99.90;;;;;;5089983;28;20208;-57
2021/12/17 02:47:21;;;;;;;46.03;17.98;;;5.20;99.90;;;;;;5088556;28;20568;-57
2021/12/17 02:49:48;;;;;;;30.75;15.35;;;5.20;99.90;;;;;;5091263;28;20634;-57
2021/12/17 02:52:15;;;;;;;27.95;12.90;;;5.20;99.90;;;;;;5089935;28;20593;-57
2021/12/17 02:54:40;;;;;;;21.17;11.05;;;5.20;99.90;;;;;;5090495;28;20180;-57
2021/12/17 02:57:08;;;;;;;20.10;10.25;;;5.20;99.90;;;;;;5091304;28;20215;-57
2021/12/17 02:59:35;;;;;;;22.52;11.70;;;5.20;99.90;;;;;;5089878;28;20635;-57
2021/12/17 03:02:09;;;;;;;19.48;10.20;;;5.20;99.90;;;;;;5091120;28;20188;-57
2021/12/17 03:04:39;;;;;;;16.67;10.43;;;5.20;99.90;;;;;;5087636;28;20184;-57
2021/12/17 03:07:06;;;;;;;19.90;11.07;;;5.20;99.90;;;;;;5091533;28;20188;-57
2021/12/17 03:09:51;;;;;;;20.73;11.05;;;5.30;99.90;;;;;;5091030;28;20188;-57
2021/12/17 03:12:23;;;;;;;20.48;10.82;;;5.30;99.90;;;;;;5071443;28;20202;-58
2021/12/17 03:14:57;;;;;;;27.20;12.25;;;5.30;99.90;;;;;;5088595;28;20204;-57
2021/12/17 03:17:50;;;;;;;20.48;11.38;;;5.30;99.90;;;;;;5091059;28;20176;-57
2021/12/17 03:25:37;;;;;;;18.83;10.25;;;5.40;99.90;;;;;;5083665;28;20256;-58
2021/12/17 03:28:03;;;;;;;19.35;10.77;;;5.40;99.90;;;;;;5094325;28;20195;-58
2021/12/17 03:30:29;;;;;;;19.83;10.93;;;5.40;99.90;;;;;;5093612;28;20240;-57
2021/12/17 03:32:54;;;;;;;19.98;10.88;;;5.40;99.90;;;;;;5093498;28;20184;-57
2021/12/17 03:35:20;;;;;;;17.92;10.60;;;5.40;99.90;;;;;;5094132;28;20203;-57
2021/12/17 03:37:45;;;;;;;18.98;10.43;;;5.50;99.90;;;;;;5094457;28;20191;-58
2021/12/17 03:40:14;;;;;;;22.85;10.82;;;5.50;99.90;;;;;;5094675;28;20176;-59
2021/12/17 03:42:46;;;;;;;19.25;11.00;;;5.50;99.90;;;;;;5095203;28;20661;-57
2021/12/17 03:45:12;;;;;;;20.70;11.30;;;5.50;99.90;;;;;;5090209;28;20184;-59
2021/12/17 03:47:38;;;;;;;20.65;11.55;;;5.50;99.90;;;;;;5094610;28;20237;-58
2021/12/17 03:50:04;;;;;;;20.48;11.20;;;5.50;99.90;;;;;;5093088;28;20180;-57
2021/12/17 03:52:29;;;;;;;21.17;11.60;;;5.50;99.90;;;;;;5075945;28;20175;-58
2021/12/17 03:54:55;;;;;;;16.75;10.40;;;5.50;99.90;;;;;;5090301;28;20211;-58
2021/12/17 03:57:21;;;;;;;18.80;10.07;;;5.50;99.90;;;;;;5091899;28;20216;-58
2021/12/17 03:59:47;;;;;;;21.52;11.02;;;5.50;99.90;;;;;;5093482;28;20176;-58
2021/12/17 04:02:13;;;;;;;22.17;10.80;;;5.50;99.90;;;;;;5075803;28;20235;-59
2021/12/17 04:04:39;;;;;;;24.90;11.02;;;5.50;99.90;;;;;;5087993;28;20185;-58
2021/12/17 04:07:05;;;;;;;20.98;10.77;;;5.50;99.90;;;;;;5091131;28;20846;-58
2021/12/17 04:09:31;;;;;;;17.95;9.68;;;5.50;99.90;;;;;;5094011;28;20547;-58
2021/12/17 04:11:57;;;;;;;17.80;10.18;;;5.50;99.90;;;;;;5094098;28;20186;-58
2021/12/17 04:14:33;;;;;;;20.02;11.10;;;5.50;99.90;;;;;;5093324;28;20255;-58
2021/12/17 04:17:05;;;;;;;23.13;11.05;;;5.50;99.90;;;;;;5093249;28;20188;-57
2021/12/17 04:19:31;;;;;;;18.17;10.38;;;5.50;99.90;;;;;;5093906;28;20304;-58
2021/12/17 04:21:56;;;;;;;19.08;10.38;;;5.50;99.90;;;;;;5093728;28;20192;-58
2021/12/17 04:24:22;;;;;;;17.95;10.85;;;5.50;99.90;;;;;;5093781;28;20254;-58
2021/12/17 04:26:48;;;;;;;19.73;11.05;;;5.50;99.90;;;;;;5092501;28;20172;-59
2021/12/17 04:29:14;;;;;;;24.13;12.35;;;5.50;99.90;;;;;;5094206;28;20188;-59
2021/12/17 04:31:39;;;;;;;25.85;12.15;;;5.50;99.90;;;;;;5093604;28;20183;-58
2021/12/17 04:34:05;;;;;;;42.33;17.15;;;5.50;99.90;;;;;;5092965;28;20175;-58
2021/12/17 04:36:34;;;;;;;53.30;20.48;;;5.50;99.90;;;;;;5093476;28;20220;-58
2021/12/17 04:39:00;;;;;;;49.55;19.98;;;5.50;99.90;;;;;;5093878;28;20187;-58
2021/12/17 04:44:07;;;;;;;36.03;16.65;;;5.50;99.90;;;;;;5093315;28;20538;-58
2021/12/17 04:59:46;;;;;;;31.95;14.90;;;5.50;99.90;;;;;;5092813;28;20184;-58
2021/12/17 05:02:11;;;;;;;25.33;12.25;;;5.50;99.90;;;;;;5091980;28;20226;-60
2021/12/17 05:04:37;;;;;;;23.52;11.27;;;5.50;99.90;;;;;;5092878;28;20180;-58
2021/12/17 05:07:06;;;;;;;22.70;11.40;;;5.50;99.90;;;;;;5092034;28;20195;-57
2021/12/17 05:10:21;;;;;;;18.67;11.00;;;5.50;99.90;;;;;;5091818;28;20176;-58
2021/12/17 05:20:45;;;;;;;22.63;11.57;;;5.50;99.90;;;;;;5093168;28;20191;-57
2021/12/17 05:23:11;;;;;;;19.85;11.43;;;5.50;99.90;;;;;;5092454;28;21707;-60
2021/12/17 05:25:36;;;;;;;19.60;10.73;;;5.50;99.90;;;;;;5092144;28;20180;-58
2021/12/17 05:28:02;;;;;;;21.33;10.50;;;5.50;99.90;;;;;;5093119;28;20184;-58
2021/12/17 05:30:29;;;;;;;22.15;11.07;;;5.50;99.90;;;;;;5091615;28;20533;-59
2021/12/17 05:32:56;;;;;;;22.17;11.45;;;5.50;99.90;;;;;;5092855;28;20246;-58
2021/12/17 05:35:22;;;;;;;21.55;11.18;;;5.50;99.90;;;;;;5091084;28;20215;-58
2021/12/17 05:37:48;;;;;;;24.75;11.30;;;5.50;99.90;;;;;;5092858;28;20176;-58
2021/12/17 05:40:13;;;;;;;20.52;11.35;;;5.50;99.90;;;;;;5093128;28;20230;-58
2021/12/17 05:42:41;;;;;;;20.55;11.57;;;5.50;99.90;;;;;;5092823;28;20679;-59
2021/12/17 05:45:20;;;;;;;18.60;10.27;;;5.50;99.90;;;;;;5085264;28;20181;-58
2021/12/17 05:47:46;;;;;;;20.83;11.00;;;5.60;99.90;;;;;;5072833;28;20172;-59
2021/12/17 05:50:11;;;;;;;20.08;11.07;;;5.60;99.90;;;;;;5072687;28;20177;-60
2021/12/17 05:52:37;;;;;;;17.73;10.60;;;5.60;99.90;;;;;;5072647;28;20180;-58
2021/12/17 05:55:03;;;;;;;19.10;10.75;;;5.60;99.90;;;;;;5072538;28;20220;-58
2021/12/17 05:57:28;;;;;;;17.77;10.73;;;5.50;99.90;;;;;;5072209;28;20610;-58
2021/12/17 05:59:54;;;;;;;21.30;11.10;;;5.50;99.90;;;;;;5072419;28;20635;-58
2021/12/17 06:02:20;;;;;;;18.50;10.65;;;5.50;99.90;;;;;;5071047;28;20662;-59
2021/12/17 06:04:45;;;;;;;17.10;10.02;;;5.60;99.90;;;;;;5072385;28;20318;-58
2021/12/17 06:07:11;;;;;;;18.08;10.15;;;5.60;99.90;;;;;;5072342;28;20255;-60
2021/12/17 06:09:37;;;;;;;22.80;10.95;;;5.60;99.90;;;;;;5072324;28;20189;-59
2021/12/17 06:12:03;;;;;;;18.55;10.55;;;5.60;99.90;;;;;;5072404;28;20173;-58
2021/12/17 06:14:30;;;;;;;21.73;11.68;;;5.60;99.90;;;;;;5072192;28;20635;-58
2021/12/17 06:16:56;;;;;;;24.27;11.40;;;5.60;99.90;;;;;;5072157;28;20270;-59
2021/12/17 06:19:22;;;;;;;22.65;11.57;;;5.60;99.90;;;;;;5072034;28;20177;-59
2021/12/17 06:21:48;;;;;;;19.02;10.50;;;5.60;99.90;;;;;;5070986;28;20223;-58
2021/12/17 06:24:14;;;;;;;21.48;11.48;;;5.60;99.90;;;;;;5071973;28;20203;-59
2021/12/17 06:26:39;;;;;;;25.85;12.38;;;5.60;99.90;;;;;;5072022;28;20647;-58
2021/12/17 06:29:05;;;;;;;26.45;13.48;;;5.60;99.90;;;;;;5072106;28;20173;-58
2021/12/17 06:31:30;;;;;;;29.25;14.50;;;5.60;99.90;;;;;;5072014;28;20561;-59
2021/12/17 06:33:56;;;;;;;26.33;13.52;;;5.70;99.90;;;;;;5071901;28;20537;-59
2021/12/17 06:36:22;;;;;;;24.05;11.75;;;5.70;99.90;;;;;;5071831;28;20225;-58
2021/12/17 06:38:47;;;;;;;16.60;9.57;;;5.70;99.90;;;;;;5072015;28;20259;-59
2021/12/17 06:41:13;;;;;;;16.40;9.35;;;5.60;99.90;;;;;;5071772;28;20176;-59
2021/12/17 06:43:41;;;;;;;16.52;9.32;;;5.60;99.90;;;;;;5071891;28;20173;-59
2021/12/17 06:48:55;;;;;;;15.82;8.85;;;5.60;99.90;;;;;;5092362;28;20634;-58
2021/12/17 06:59:41;;;;;;;18.60;9.73;;;5.60;99.90;;;;;;5091891;28;20233;-58
2021/12/17 07:10:30;;;;;;;13.20;8.10;;;5.60;99.90;;;;;;5091693;28;20248;-59
2021/12/17 07:21:23;;;;;;;11.98;7.68;;;5.50;99.90;;;;;;5091811;28;20176;-58
2021/12/17 07:39:50;;;;;;;14.20;8.18;;;5.50;99.90;;;;;;5091603;28;20272;-58
2021/12/17 07:42:16;;;;;;;13.20;8.10;;;5.50;99.90;;;;;;5091490;28;20177;-59
2021/12/17 07:44:42;;;;;;;15.60;9.13;;;5.50;99.90;;;;;;5089908;28;20229;-58
2021/12/17 07:47:07;;;;;;;17.20;9.13;;;5.50;99.90;;;;;;5091658;28;20650;-58
2021/12/17 07:49:33;;;;;;;15.95;8.38;;;5.50;99.90;;;;;;5091370;28;20182;-59
2021/12/17 07:51:58;;;;;;;13.90;8.48;;;5.50;99.90;;;;;;5091428;28;20176;-59
2021/12/17 07:54:24;;;;;;;13.35;8.20;;;5.60;99.90;;;;;;5091362;28;20650;-59
2021/12/17 07:56:49;;;;;;;13.27;8.23;;;5.50;99.90;;;;;;5091304;28;20230;-59
2021/12/17 07:59:15;;;;;;;12.75;7.78;;;5.50;99.90;;;;;;5091326;28;20187;-59
2021/12/17 08:01:41;;;;;;;15.63;8.52;;;5.50;99.90;;;;;;5091098;28;20180;-57
2021/12/17 08:04:08;;;;;;;12.80;7.72;;;5.50;99.90;;;;;;5091354;28;20169;-59
2021/12/17 08:06:35;;;;;;;12.38;7.75;;;5.50;99.90;;;;;;5091149;28;20688;-59
2021/12/17 08:09:01;;;;;;;14.38;8.50;;;5.60;99.90;;;;;;5094120;28;20242;-58
2021/12/17 08:11:27;;;;;;;10.05;6.45;;;5.60;99.90;;;;;;5094746;28;20171;-59
2021/12/17 08:13:55;;;;;;;13.27;7.75;;;5.60;99.90;;;;;;5094913;28;20728;-58
2021/12/17 08:27:08;;;;;;;16.42;9.73;;;5.70;99.90;;;;;;5094911;28;20187;-59
2021/12/17 08:32:07;;;;;;;13.23;8.40;;;5.80;99.90;;;;;;5094586;28;20631;-58
2021/12/17 08:34:33;;;;;;;15.70;9.13;;;5.80;99.90;;;;;;5094454;28;20223;-59
2021/12/17 08:36:59;;;;;;;14.57;9.77;;;5.90;99.90;;;;;;5094323;28;20250;-58
2021/12/17 08:39:26;;;;;;;20.25;10.98;;;5.90;99.90;;;;;;5094379;28;20207;-59
2021/12/17 08:41:54;;;;;;;16.77;10.55;;;6.00;99.90;;;;;;5094425;28;20176;-58
2021/12/17 08:44:20;;;;;;;18.60;10.23;;;6.00;99.90;;;;;;5094060;28;20184;-59
2021/12/17 08:46:46;;;;;;;17.65;9.68;;;6.10;99.90;;;;;;5094231;28;20180;-59
2021/12/17 08:49:11;;;;;;;13.48;8.82;;;6.20;99.90;;;;;;5094231;28;20540;-59
2021/12/17 08:51:38;;;;;;;18.70;9.00;;;6.30;99.90;;;;;;5093947;28;20191;-58
2021/12/17 08:54:05;;;;;;;11.82;7.70;;;6.40;99.90;;;;;;5094159;28;20180;-59
2021/12/17 08:56:33;;;;;;;13.57;8.45;;;6.50;99.90;;;;;;5093758;28;20310;-58
2021/12/17 08:59:06;;;;;;;13.30;8.70;;;6.60;99.90;;;;;;5093933;28;20535;-59
2021/12/17 09:01:31;;;;;;;13.02;8.07;;;6.70;99.90;;;;;;5093865;28;20191;-59
2021/12/17 09:03:57;;;;;;;16.33;8.77;;;6.70;99.90;;;;;;5093790;28;20172;-58
2021/12/17 09:06:26;;;;;;;16.05;8.48;;;6.90;99.90;;;;;;5093729;28;20168;-58
2021/12/17 09:08:56;;;;;;;11.95;7.72;;;7.00;99.90;;;;;;5093915;28;20180;-58
2021/12/17 09:11:24;;;;;;;13.23;8.27;;;7.10;99.90;;;;;;5093793;28;20229;-59
2021/12/17 09:13:51;;;;;;;13.45;7.68;;;7.20;99.90;;;;;;5093856;28;20191;-59
2021/12/17 09:16:20;;;;;;;13.43;7.82;;;7.20;99.90;;;;;;5093594;28;20203;-59
2021/12/17 09:18:47;;;;;;;13.98;7.90;;;7.20;99.90;;;;;;5093580;28;20221;-58
2021/12/17 09:21:12;;;;;;;12.00;7.90;;;7.30;99.90;;;;;;5093561;28;20528;-59
2021/12/17 09:23:39;;;;;;;14.15;8.80;;;7.30;99.90;;;;;;5093381;28;20172;-58
2021/12/17 09:26:04;;;;;;;14.15;8.50;;;7.30;99.90;;;;;;5093411;28;20195;-58
2021/12/17 09:28:31;;;;;;;13.43;8.55;;;7.30;99.90;;;;;;5093317;28;20164;-59
2021/12/17 09:30:57;;;;;;;12.90;7.72;;;7.40;99.90;;;;;;5093274;28;20219;-58
2021/12/17 09:33:25;;;;;;;12.45;8.07;;;7.50;99.90;;;;;;5093209;28;20179;-58
2021/12/17 09:35:51;;;;;;;12.82;7.70;;;7.50;99.90;;;;;;5093223;28;20211;-58
2021/12/17 09:38:16;;;;;;;16.10;8.27;;;7.60;99.90;;;;;;5093112;28;20183;-58
2021/12/17 09:40:42;;;;;;;15.90;8.57;;;7.60;99.90;;;;;;5093199;28;20540;-60
2021/12/17 09:43:10;;;;;;;14.57;8.23;;;7.70;99.90;;;;;;5093169;28;20650;-58
2021/12/17 09:45:36;;;;;;;26.77;14.48;;;7.80;99.90;;;;;;5092910;28;20207;-58
2021/12/17 09:48:03;;;;;;;23.92;13.43;;;7.80;99.90;;;;;;5093065;28;20176;-58
2021/12/17 09:50:28;;;;;;;17.48;11.00;;;7.80;99.90;;;;;;5093157;28;20236;-58
2021/12/17 09:52:54;;;;;;;16.92;8.68;;;7.90;99.90;;;;;;5092882;28;20267;-59
2021/12/17 09:55:20;;;;;;;15.77;8.95;;;7.90;99.90;;;;;;5092677;28;20204;-59
2021/12/17 09:57:46;;;;;;;17.90;9.25;;;8.00;99.90;;;;;;5092629;28;20231;-59
2021/12/17 10:00:22;;;;;;;18.95;9.80;;;8.00;99.90;;;;;;5092923;28;20176;-60
2021/12/17 10:02:49;;;;;;;14.52;8.73;;;8.10;99.90;;;;;;5092859;28;20178;-58
2021/12/17 10:05:18;;;;;;;12.45;8.43;;;8.10;99.90;;;;;;5092717;28;20176;-59
2021/12/17 10:07:44;;;;;;;15.88;9.43;;;8.10;99.90;;;;;;5092561;28;20183;-59
2021/12/17 10:10:12;;;;;;;14.57;8.93;;;8.10;99.90;;;;;;5092718;28;20176;-59
2021/12/17 10:12:40;;;;;;;14.70;8.00;;;8.10;99.90;;;;;;5092358;28;20657;-59
2021/12/17 10:15:10;;;;;;;14.07;8.95;;;8.10;99.90;;;;;;5092520;28;20257;-59
2021/12/17 10:18:00;;;;;;;13.15;7.13;;;8.00;99.90;;;;;;5091120;28;20608;-59
2021/12/17 10:20:28;;;;;;;14.00;8.23;;;8.00;99.90;;;;;;5092354;28;20234;-58
2021/12/17 10:22:58;;;;;;;12.73;8.32;;;8.00;99.90;;;;;;5092461;28;20401;-60
2021/12/17 10:25:24;;;;;;;13.57;8.77;;;8.10;99.90;;;;;;5092285;28;20263;-57
2021/12/17 10:27:56;;;;;;;15.48;8.77;;;8.10;99.90;;;;;;5092394;28;20534;-59
2021/12/17 10:30:22;;;;;;;16.45;9.07;;;8.10;99.90;;;;;;5091658;28;20216;-60
2021/12/17 10:32:51;;;;;;;16.33;10.18;;;8.20;99.90;;;;;;5092487;28;20180;-58
2021/12/17 10:35:22;;;;;;;19.90;10.30;;;8.20;99.90;;;;;;5091954;28;20203;-57
2021/12/17 10:37:57;;;;;;;14.98;8.30;;;8.20;99.90;;;;;;5092169;28;20523;-58
2021/12/17 10:40:28;;;;;;;17.00;8.10;;;8.30;99.90;;;;;;5092118;28;20186;-58
2021/12/17 10:43:12;;;;;;;17.75;8.98;;;8.30;99.90;;;;;;5092123;28;20172;-58
2021/12/17 10:45:43;;;;;;;14.75;7.78;;;8.30;99.90;;;;;;5091859;28;20267;-58
2021/12/17 10:51:13;;;;;;;19.15;9.07;;;8.30;99.90;;;;;;5049500;28;20280;-57
2021/12/17 10:53:44;;;;;;;23.45;10.07;;;8.40;99.90;;;;;;5091868;28;20172;-57
2021/12/17 10:56:16;;;;;;;16.13;8.93;;;8.40;99.90;;;;;;5091799;28;20223;-57
2021/12/17 10:59:00;;;;;;;18.67;10.55;;;8.50;99.90;;;;;;5092015;28;20211;-58
2021/12/17 11:01:35;;;;;;;14.02;8.48;;;8.50;99.90;;;;;;5092009;28;20176;-58
2021/12/17 11:04:24;;;;;;;16.25;8.32;;;8.60;99.90;;;;;;5091857;28;20257;-58
2021/12/17 11:06:52;;;;;;;15.55;8.43;;;8.60;99.90;;;;;;5091950;28;20237;-58
2021/12/17 11:09:46;;;;;;;11.15;6.60;;;8.70;99.90;;;;;;5091790;28;20184;-58
2021/12/17 11:12:15;;;;;;;12.05;6.90;;;8.70;99.90;;;;;;5091933;28;20192;-59
2021/12/17 11:14:46;;;;;;;11.98;6.68;;;8.60;99.90;;;;;;5091736;28;20180;-59
2021/12/17 11:17:13;;;;;;;10.63;6.93;;;8.70;99.90;;;;;;5091889;28;20241;-57
2021/12/17 11:19:41;;;;;;;10.88;6.70;;;8.70;99.90;;;;;;5091589;28;20177;-58
2021/12/17 11:22:06;;;;;;;11.07;6.95;;;8.80;99.90;;;;;;5091721;28;20184;-59
2021/12/17 11:24:34;;;;;;;14.93;7.97;;;8.80;99.90;;;;;;5091627;28;20179;-59
2021/12/17 11:27:02;;;;;;;14.75;7.30;;;8.90;99.90;;;;;;5091692;28;20180;-59
2021/12/17 11:29:28;;;;;;;13.35;6.68;;;8.90;99.90;;;;;;5091530;28;20179;-59
2021/12/17 11:31:54;;;;;;;12.60;7.35;;;8.90;99.90;;;;;;5091730;28;20224;-59
2021/12/17 11:34:20;;;;;;;9.73;6.57;;;8.80;99.90;;;;;;5091461;28;20213;-59
2021/12/17 11:36:46;;;;;;;17.17;6.80;;;8.70;99.90;;;;;;5091642;28;20215;-59
2021/12/17 11:39:26;;;;;;;14.10;7.97;;;8.50;99.90;;;;;;5091624;28;20168;-58
2021/12/17 11:42:16;;;;;;;15.85;9.05;;;8.40;99.90;;;;;;5091757;28;20199;-58
2021/12/17 11:44:52;;;;;;;14.73;8.32;;;8.40;99.90;;;;;;5095798;28;20262;-58
2021/12/17 11:47:18;;;;;;;16.67;8.55;;;8.30;99.90;;;;;;5095265;28;20191;-58
2021/12/17 11:49:49;;;;;;;11.48;7.70;;;8.30;99.90;;;;;;5095485;28;20761;-58
2021/12/17 11:52:43;;;;;;;15.38;8.25;;;8.30;99.90;;;;;;5095305;28;20171;-59
2021/12/17 11:55:35;;;;;;;13.85;8.48;;;8.30;99.90;;;;;;5095185;28;20218;-59
2021/12/17 11:58:10;;;;;;;18.92;9.32;;;8.20;99.90;;;;;;5094969;28;20277;-58
2021/12/17 12:00:45;;;;;;;14.35;8.68;;;8.20;99.90;;;;;;5095176;28;20704;-59
2021/12/17 12:03:19;;;;;;;16.58;8.60;;;8.30;99.90;;;;;;5095218;28;20257;-59
2021/12/17 12:05:47;;;;;;;10.52;5.65;;;8.30;99.90;;;;;;5095122;28;20237;-59
2021/12/17 12:08:46;;;;;;;11.45;7.13;;;8.20;99.90;;;;;;5095009;28;20179;-59
2021/12/17 12:11:18;;;;;;;11.00;6.22;;;8.10;99.90;;;;;;5095081;28;20176;-59
2021/12/17 12:13:46;;;;;;;11.82;6.25;;;8.10;99.90;;;;;;5095076;28;20192;-59
2021/12/17 12:16:18;;;;;;;12.18;6.85;;;8.10;99.90;;;;;;5094762;28;20290;-59
2021/12/17 12:18:49;;;;;;;12.60;7.47;;;8.10;99.90;;;;;;5094971;28;20178;-57
2021/12/17 12:21:32;;;;;;;11.77;6.57;;;8.10;99.90;;;;;;5094766;28;20251;-59
2021/12/17 12:24:11;;;;;;;10.07;6.38;;;8.10;99.90;;;;;;5094798;28;20187;-59
2021/12/17 12:26:39;;;;;;;10.73;5.32;;;8.10;99.90;;;;;;5094593;28;20179;-59
2021/12/17 12:29:09;;;;;;;11.02;6.20;;;8.10;99.90;;;;;;5094693;28;20169;-59
2021/12/17 12:31:37;;;;;;;11.25;6.07;;;8.20;99.90;;;;;;5094476;28;20172;-59
2021/12/17 12:34:03;;;;;;;9.70;5.80;;;8.30;99.90;;;;;;5094607;28;20173;-59
2021/12/17 12:36:49;;;;;;;10.25;6.10;;;8.40;99.90;;;;;;5094219;28;20219;-59
2021/12/17 12:39:18;;;;;;;8.57;5.20;;;8.40;99.90;;;;;;5094220;28;20650;-58
2021/12/17 12:41:49;;;;;;;11.18;5.68;;;8.50;99.90;;;;;;5094481;28;20180;-58
2021/12/17 12:44:15;;;;;;;6.20;4.47;;;8.50;99.90;;;;;;5094273;28;20536;-58
2021/12/17 12:46:55;;;;;;;7.15;4.57;;;8.50;99.90;;;;;;5094260;28;20172;-58
2021/12/17 12:49:44;;;;;;;7.82;4.70;;;8.50;99.90;;;;;;5094026;28;20529;-58
2021/12/17 12:52:39;;;;;;;10.02;5.38;;;8.40;99.90;;;;;;5094562;28;20176;-57
2021/12/17 12:55:16;;;;;;;9.00;5.55;;;8.40;99.90;;;;;;5093581;28;20207;-58
2021/12/17 12:57:54;;;;;;;9.85;5.00;;;8.40;99.90;;;;;;5092553;28;20733;-60
2021/12/17 13:00:22;;;;;;;10.45;5.95;;;8.40;99.90;;;;;;5094007;28;20675;-58
2021/12/17 13:02:51;;;;;;;9.00;5.65;;;8.30;99.90;;;;;;5094016;28;20627;-58
2021/12/17 13:05:17;;;;;;;8.57;5.78;;;8.30;99.90;;;;;;5093954;28;20202;-58
2021/12/17 13:07:50;;;;;;;5.95;4.18;;;8.20;99.90;;;;;;5093901;28;20524;-58
2021/12/17 13:10:17;;;;;;;6.78;4.78;;;8.20;99.90;;;;;;5093896;28;20266;-58
2021/12/17 13:13:06;;;;;;;9.75;4.18;;;8.20;99.90;;;;;;5093861;28;20168;-58
2021/12/17 13:15:42;;;;;;;8.20;4.05;;;8.20;99.90;;;;;;5093588;28;20207;-58
2021/12/17 13:24:06;;;;;;;7.75;4.18;;;8.10;99.90;;;;;;5093688;28;20658;-58
2021/12/17 13:26:31;;;;;;;10.18;5.30;;;8.10;99.90;;;;;;5093463;28;20191;-57
2021/12/17 13:29:04;;;;;;;6.35;4.28;;;8.10;99.90;;;;;;5093422;28;20658;-58
2021/12/17 13:32:05;;;;;;;6.65;4.38;;;8.10;99.90;;;;;;5092122;28;20257;-58
2021/12/17 13:34:43;;;;;;;6.30;4.57;;;8.10;99.90;;;;;;5090032;28;20315;-58
2021/12/17 13:37:24;;;;;;;9.18;5.45;;;8.10;99.90;;;;;;5093300;28;20219;-58
2021/12/17 13:39:52;;;;;;;8.88;5.50;;;8.10;99.90;;;;;;5093161;28;20168;-59
2021/12/17 13:42:22;;;;;;;8.75;5.53;;;8.10;99.90;;;;;;5091721;28;20191;-59
2021/12/17 13:44:59;;;;;;;6.68;4.65;;;8.10;99.90;;;;;;5093079;28;20229;-58
2021/12/17 13:47:36;;;;;;;6.95;5.30;;;8.10;99.90;;;;;;5092994;28;20214;-58
2021/12/17 13:50:07;;;;;;;5.93;4.38;;;8.10;99.90;;;;;;5093030;28;20172;-59
2021/12/17 13:52:36;;;;;;;7.88;4.95;;;8.10;99.90;;;;;;5092851;28;20180;-59
2021/12/17 13:55:06;;;;;;;8.38;4.70;;;8.10;99.90;;;;;;5092852;28;20183;-59
2021/12/17 13:57:32;;;;;;;6.15;4.78;;;8.00;99.90;;;;;;5092529;28;20353;-59
2021/12/17 14:00:06;;;;;;;6.65;4.63;;;7.90;99.90;;;;;;5092653;28;20196;-58
2021/12/17 14:02:34;;;;;;;9.77;5.68;;;8.00;99.90;;;;;;5092657;28;20180;-58
2021/12/17 14:05:07;;;;;;;7.32;5.57;;;7.90;99.90;;;;;;5091830;28;20228;-58
2021/12/17 14:07:35;;;;;;;7.95;5.28;;;8.00;99.90;;;;;;5092380;28;20636;-58
2021/12/17 14:10:06;;;;;;;8.23;5.65;;;8.00;99.90;;;;;;5092412;28;20628;-59
2021/12/17 14:12:36;;;;;;;9.20;5.85;;;8.00;99.90;;;;;;5092487;28;20546;-58
2021/12/17 14:15:08;;;;;;;7.57;5.32;;;7.90;99.90;;;;;;5092265;28;20176;-59
2021/12/17 14:17:43;;;;;;;8.07;5.25;;;7.90;99.90;;;;;;5092344;28;20191;-59
2021/12/17 14:20:42;;;;;;;6.68;4.90;;;7.90;99.90;;;;;;5092314;28;20203;-59
2021/12/17 14:23:15;;;;;;;7.63;4.90;;;7.80;99.90;;;;;;5092158;28;20629;-59
2021/12/17 14:25:44;;;;;;;8.40;5.57;;;7.80;99.90;;;;;;5092237;28;20591;-58
2021/12/17 14:28:14;;;;;;;8.07;5.13;;;7.70;99.90;;;;;;5092277;28;20199;-58
2021/12/17 14:31:02;;;;;;;9.52;5.93;;;7.70;99.90;;;;;;5092036;28;20172;-59
2021/12/17 14:33:40;;;;;;;8.10;5.35;;;7.60;99.90;;;;;;5091684;28;20195;-58
2021/12/17 14:36:12;;;;;;;11.65;6.43;;;7.60;99.90;;;;;;5092097;28;20541;-58
2021/12/17 14:38:44;;;;;;;8.32;5.43;;;7.50;99.90;;;;;;5091973;28;20175;-58
2021/12/17 14:41:43;;;;;;;10.82;6.63;;;7.50;99.90;;;;;;5092054;28;20177;-58
2021/12/17 14:44:23;;;;;;;11.23;5.72;;;7.40;99.90;;;;;;5092099;28;20173;-59
2021/12/17 15:03:21;;;;;;;10.57;6.55;;;7.30;99.90;;;;;;5091458;28;20248;-59
2021/12/17 15:05:47;;;;;;;11.88;6.90;;;7.30;99.90;;;;;;5089066;28;20195;-59
2021/12/17 15:08:12;;;;;;;10.23;6.28;;;7.20;99.90;;;;;;5091082;28;20223;-59
2021/12/17 15:10:38;;;;;;;9.07;5.80;;;7.20;99.90;;;;;;5091464;28;20192;-58
2021/12/17 15:13:05;;;;;;;8.65;5.35;;;7.20;99.90;;;;;;5091496;28;20234;-57
2021/12/17 15:15:38;;;;;;;11.13;7.05;;;7.20;99.90;;;;;;5091475;28;20211;-59
2021/12/17 15:18:14;;;;;;;11.60;6.70;;;7.20;99.90;;;;;;5095160;28;20196;-58
2021/12/17 15:20:42;;;;;;;10.23;6.05;;;7.20;99.90;;;;;;5095861;28;20172;-59
2021/12/17 15:23:08;;;;;;;8.98;5.78;;;7.20;99.90;;;;;;5095757;28;20674;-59
2021/12/17 15:25:36;;;;;;;10.20;5.85;;;7.10;99.90;;;;;;5095574;28;20187;-58
2021/12/17 15:28:03;;;;;;;6.90;4.90;;;7.10;99.90;;;;;;5094371;28;20169;-59
2021/12/17 15:30:37;;;;;;;10.80;5.88;;;7.10;99.90;;;;;;5093983;28;20661;-59
2021/12/17 15:33:04;;;;;;;8.98;5.10;;;7.00;99.90;;;;;;5095301;28;20172;-58
2021/12/17 15:35:30;;;;;;;9.60;5.85;;;7.00;99.90;;;;;;5094907;28;20239;-58
2021/12/17 15:37:57;;;;;;;7.93;5.53;;;7.00;99.90;;;;;;5095344;28;20199;-58
2021/12/17 15:40:24;;;;;;;8.57;5.28;;;7.00;99.90;;;;;;5094933;28;20281;-57
2021/12/17 15:42:50;;;;;;;8.23;5.45;;;7.00;99.90;;;;;;5095378;28;20279;-57
2021/12/17 15:45:16;;;;;;;9.40;5.10;;;6.90;99.90;;;;;;5094795;28;20182;-57
2021/12/17 15:47:42;;;;;;;7.00;5.20;;;6.90;99.90;;;;;;5094909;28;20180;-57
2021/12/17 15:50:10;;;;;;;7.78;4.93;;;6.90;99.90;;;;;;5094329;28;20511;-57
2021/12/17 15:52:43;;;;;;;7.03;5.05;;;6.90;99.90;;;;;;5094882;28;20176;-57
2021/12/17 15:55:09;;;;;;;7.07;5.18;;;6.90;99.90;;;;;;5094985;28;20196;-57
2021/12/17 15:57:35;;;;;;;7.72;5.55;;;6.80;99.90;;;;;;5094545;28;20227;-58
2021/12/17 16:00:00;;;;;;;8.23;5.85;;;6.80;99.90;;;;;;5094980;28;20545;-58
2021/12/17 16:02:26;;;;;;;7.70;5.13;;;6.80;99.90;;;;;;5094651;28;20714;-58
2021/12/17 16:04:52;;;;;;;9.07;5.55;;;6.80;99.90;;;;;;5093792;28;20176;-58
2021/12/17 16:07:17;;;;;;;7.50;5.18;;;6.70;99.90;;;;;;5094355;28;20172;-58
2021/12/17 16:23:13;;;;;;;6.03;4.95;;;6.50;99.90;;;;;;5094432;28;20198;-59
2021/12/17 16:25:38;;;;;;;8.40;5.20;;;6.50;99.90;;;;;;5094565;28;20176;-58
2021/12/17 16:28:04;;;;;;;7.75;5.30;;;6.50;99.90;;;;;;5093536;28;20188;-58
2021/12/17 16:30:30;;;;;;;8.13;5.32;;;6.40;99.90;;;;;;5094419;28;20602;-58
2021/12/17 16:32:57;;;;;;;11.75;6.05;;;6.40;99.90;;;;;;5093328;28;20255;-58
2021/12/17 16:35:22;;;;;;;10.73;6.97;;;6.40;99.90;;;;;;5093848;28;20207;-59